Fairview, Montana
Current Conditions -  °F | °C
As of 6:35 PM on Monday 22 Dec 2014 (Local Time) from KSDY Reporting Station
Overcast Overcast  
Wind Chill: -11°   Ceiling: 1700
Heat Index: -4°   Visibility: 10mi
Dew Point: -6°   Wind: 15mph
Humidity: 86%   Direction: 300°WNW
Pressure: 29.87"   Gusts: NA
Location:  47.86°N, 104.04°W
Report Text: KSDY 230135Z AUTO 30013KT 10SM BKN017 OVC025 M04/M06 A2987 RMK AO1
Loading
Personal Weather Stations






























Interactive Weather Map New forecast layout! Learn more

10-Day Weather Forecast

Advertisements
Track Severe Weather on mobile